createdAt,value
2023-04-01T00:02:15.629Z,2.05
2023-04-01T00:04:42.522Z,2.33
2023-04-01T00:07:09.191Z,1.85
2023-04-01T00:09:36.139Z,1.92
2023-04-01T00:12:02.579Z,1.83
2023-04-01T00:14:30.040Z,3.13
2023-04-01T00:16:56.910Z,2.25
2023-04-01T00:19:23.435Z,1.55
2023-04-01T00:21:49.903Z,2.00
2023-04-01T00:24:16.402Z,1.67
2023-04-01T00:26:43.482Z,2.42
2023-04-01T00:29:09.914Z,1.65
2023-04-01T00:31:36.437Z,2.15
2023-04-01T00:34:03.330Z,1.40
2023-04-01T00:36:29.917Z,1.88
2023-04-01T00:38:56.402Z,1.70
2023-04-01T00:41:22.956Z,1.75
2023-04-01T00:43:50.751Z,2.63
2023-04-01T00:46:17.295Z,1.85
2023-04-01T00:48:49.466Z,2.00
2023-04-01T00:51:21.484Z,2.33
2023-04-01T00:53:49.261Z,2.25
2023-04-01T00:56:22.148Z,2.63
2023-04-01T00:58:55.294Z,2.10
2023-04-01T01:01:23.081Z,1.65
2023-04-01T01:03:49.710Z,2.40
2023-04-01T01:06:24.812Z,2.25
2023-04-01T01:09:08.591Z,1.95
2023-04-01T01:11:43.787Z,2.38
2023-04-01T01:14:19.795Z,2.60
2023-04-01T01:16:49.552Z,3.42
2023-04-01T01:19:34.905Z,3.53
2023-04-01T01:22:13.359Z,2.67
2023-04-01T01:24:58.164Z,2.33
2023-04-01T01:27:24.827Z,2.25
2023-04-01T01:29:51.571Z,2.03
2023-04-01T01:32:36.902Z,1.77
2023-04-01T01:35:09.171Z,1.80
2023-04-01T01:37:36.108Z,2.20
2023-04-01T01:40:04.489Z,3.45
2023-04-01T01:42:32.435Z,2.33
2023-04-01T01:45:00.480Z,2.15
2023-04-01T01:47:27.995Z,2.38
2023-04-01T01:49:56.276Z,1.98
2023-04-01T01:52:23.128Z,2.30
2023-04-01T01:54:53.947Z,3.42
2023-04-01T01:57:24.634Z,2.17
2023-04-01T01:59:53.051Z,3.28
2023-04-01T02:02:19.848Z,2.83
2023-04-01T02:04:47.059Z,2.88
2023-04-01T02:07:17.078Z,3.67
2023-04-01T02:09:44.339Z,2.85
2023-04-01T02:12:12.194Z,3.75
2023-04-01T02:14:44.170Z,2.95
2023-04-01T02:17:12.332Z,2.15
2023-04-01T02:19:42.202Z,4.03
2023-04-01T02:22:11.360Z,3.20
2023-04-01T02:24:38.974Z,2.65
2023-04-01T02:27:05.626Z,2.80
2023-04-01T02:29:32.367Z,3.50
2023-04-01T02:31:59.330Z,2.88
2023-04-01T02:34:26.466Z,3.20
2023-04-01T02:36:53.164Z,2.75
2023-04-01T02:39:19.893Z,2.60
2023-04-01T02:41:46.594Z,2.97
2023-04-01T02:44:13.967Z,3.38
2023-04-01T02:46:40.754Z,2.20
2023-04-01T02:49:07.274Z,3.97
2023-04-01T02:51:34.017Z,2.58
2023-04-01T02:54:00.693Z,2.17
2023-04-01T02:56:27.302Z,3.08
2023-04-01T02:58:54.098Z,2.97
2023-04-01T03:01:21.249Z,2.60
2023-04-01T03:03:47.992Z,4.38
2023-04-01T03:06:15.968Z,2.70
2023-04-01T03:08:42.675Z,3.50
2023-04-01T03:11:10.122Z,2.15
2023-04-01T03:13:36.551Z,2.50
2023-04-01T03:16:03.474Z,3.10
2023-04-01T03:18:29.971Z,2.80
2023-04-01T03:20:56.420Z,2.13
2023-04-01T03:23:23.040Z,1.70
2023-04-01T03:25:49.466Z,2.05
2023-04-01T03:28:15.908Z,2.58
2023-04-01T03:30:42.413Z,2.53
2023-04-01T03:33:08.912Z,3.08
2023-04-01T03:35:37.050Z,2.25
2023-04-01T03:38:03.796Z,2.17
2023-04-01T03:40:30.386Z,3.38
2023-04-01T03:42:57.293Z,2.33
2023-04-01T03:45:23.903Z,2.50
2023-04-01T03:47:50.446Z,2.38
2023-04-01T03:50:17.062Z,2.42
2023-04-01T03:52:43.511Z,3.20
2023-04-01T03:55:09.984Z,2.85
2023-04-01T03:57:36.528Z,2.65
2023-04-01T04:00:03.136Z,3.28
2023-04-01T04:02:29.652Z,2.63
2023-04-01T04:04:56.301Z,2.67
2023-04-01T04:07:22.745Z,2.80
2023-04-01T04:09:49.216Z,2.53
2023-04-01T04:12:15.692Z,3.25
2023-04-01T04:14:42.117Z,2.72
2023-04-01T04:17:14.691Z,2.50
2023-04-01T04:19:41.163Z,3.35
2023-04-01T04:22:07.627Z,2.28
2023-04-01T04:24:35.171Z,2.95
2023-04-01T04:27:01.712Z,2.50
2023-04-01T04:29:28.403Z,2.38
2023-04-01T04:31:54.928Z,3.20
2023-04-01T04:34:23.302Z,4.00
2023-04-01T04:36:50.028Z,2.97
2023-04-01T04:39:16.587Z,2.72
2023-04-01T04:41:43.054Z,3.30
2023-04-01T04:44:09.495Z,2.92
2023-04-01T04:46:37.150Z,3.00
2023-04-01T04:49:03.684Z,2.63
2023-04-01T04:51:30.114Z,2.50
2023-04-01T04:53:56.593Z,2.38
2023-04-01T04:56:23.894Z,2.08
2023-04-01T04:58:50.738Z,3.25
2023-04-01T05:01:18.057Z,2.25
2023-04-01T05:03:44.883Z,2.33
2023-04-01T05:06:12.554Z,2.78
2023-04-01T05:08:40.596Z,3.15
2023-04-01T05:11:14.378Z,3.15
2023-04-01T05:16:11.038Z,2.03
2023-04-01T05:18:37.553Z,3.72
2023-04-01T05:21:04.039Z,3.08
2023-04-01T05:23:34.118Z,3.97
2023-04-01T05:26:04.089Z,3.28
2023-04-01T05:28:30.510Z,4.07
2023-04-01T05:30:59.195Z,3.10
2023-04-01T05:33:25.706Z,3.47
2023-04-01T05:35:52.230Z,4.47
2023-04-01T05:38:18.769Z,3.95
2023-04-01T05:40:45.724Z,4.28
2023-04-01T05:43:12.181Z,3.20
2023-04-01T05:45:38.770Z,3.17
2023-04-01T05:48:05.447Z,3.47
2023-04-01T05:50:32.097Z,3.10
2023-04-01T05:52:58.581Z,4.18
2023-04-01T05:55:25.074Z,4.15
2023-04-01T05:57:51.634Z,3.42
2023-04-01T06:00:18.356Z,3.72
2023-04-01T06:02:45.035Z,3.75
2023-04-01T06:05:11.761Z,4.18
2023-04-01T06:07:38.191Z,3.53
2023-04-01T06:10:11.155Z,3.97
2023-04-01T06:12:52.851Z,4.25
2023-04-01T06:15:19.328Z,4.57
2023-04-01T06:18:04.786Z,4.40
2023-04-01T06:20:33.968Z,4.40
2023-04-01T06:23:06.557Z,3.83
2023-04-01T06:25:45.438Z,4.45
2023-04-01T06:28:28.588Z,3.42
2023-04-01T06:31:15.402Z,4.77
2023-04-01T06:33:43.604Z,3.67
2023-04-01T06:36:23.764Z,6.00
2023-04-01T06:38:56.456Z,4.57
2023-04-01T06:41:26.024Z,5.53
2023-04-01T06:44:10.991Z,3.65
2023-04-01T06:46:37.426Z,4.28
2023-04-01T06:49:09.940Z,4.00
2023-04-01T06:51:55.244Z,3.45
2023-04-01T06:54:25.293Z,4.45
2023-04-01T06:56:56.508Z,7.35
2023-04-01T06:59:34.350Z,4.57
2023-04-01T07:02:06.036Z,3.90
2023-04-01T07:04:32.622Z,4.45
2023-04-01T07:07:01.361Z,4.63
2023-04-01T07:09:32.322Z,3.75
2023-04-01T07:12:01.695Z,4.25
2023-04-01T07:14:33.135Z,4.20
2023-04-01T07:17:18.104Z,3.15
2023-04-01T07:19:47.476Z,4.38
2023-04-01T07:22:24.797Z,5.15
2023-04-01T07:24:51.955Z,4.28
2023-04-01T07:27:18.410Z,3.08
2023-04-01T07:29:44.989Z,4.57
2023-04-01T07:32:30.126Z,4.22
2023-04-01T07:34:59.334Z,4.20
2023-04-01T07:37:28.804Z,4.55
2023-04-01T07:39:58.036Z,3.97
2023-04-01T07:42:29.394Z,4.07
2023-04-01T07:45:05.214Z,5.20
2023-04-01T07:47:50.290Z,5.38
2023-04-01T07:50:26.775Z,4.30
2023-04-01T07:52:56.027Z,5.35
2023-04-01T07:55:22.505Z,5.38
2023-04-01T07:57:58.168Z,5.50
2023-04-01T08:00:24.746Z,4.18
2023-04-01T08:02:51.451Z,3.90
2023-04-01T08:05:17.974Z,5.05
2023-04-01T08:07:53.374Z,4.10
2023-04-01T08:10:28.035Z,3.75
2023-04-01T08:13:12.949Z,4.38
2023-04-01T08:16:00.715Z,4.90
2023-04-01T08:18:29.907Z,5.25
2023-04-01T08:21:00.993Z,4.47
2023-04-01T08:23:30.284Z,4.28
2023-04-01T08:26:06.078Z,5.40
2023-04-01T08:28:45.787Z,5.47
2023-04-01T08:31:12.323Z,5.03
2023-04-01T08:33:39.359Z,5.90
2023-04-01T08:36:12.464Z,4.35
2023-04-01T08:38:44.568Z,5.82
2023-04-01T08:41:21.329Z,3.90
2023-04-01T08:43:47.802Z,6.20
2023-04-01T08:46:35.510Z,5.07
2023-04-01T08:49:14.262Z,5.53
2023-04-01T08:51:52.777Z,5.30
2023-04-01T08:54:38.940Z,5.65
2023-04-01T08:57:09.277Z,4.72
2023-04-01T09:00:08.309Z,6.22
2023-04-01T09:02:47.984Z,5.75
2023-04-01T09:05:17.625Z,6.18
2023-04-01T09:08:00.880Z,5.55
2023-04-01T09:10:42.811Z,6.70
2023-04-01T09:13:21.272Z,4.60
2023-04-01T09:15:57.172Z,6.38
2023-04-01T09:18:35.905Z,5.40
2023-04-01T09:21:20.885Z,5.90
2023-04-01T09:24:02.682Z,5.72
2023-04-01T09:26:45.486Z,5.20
2023-04-01T09:29:18.064Z,5.00
2023-04-01T09:32:19.946Z,5.22
2023-04-01T09:35:06.841Z,7.82
2023-04-01T09:37:33.343Z,4.78
2023-04-01T09:40:02.530Z,5.20
2023-04-01T09:42:47.890Z,5.40
2023-04-01T09:45:26.656Z,4.65
2023-04-01T09:47:56.021Z,4.40
2023-04-01T09:50:41.360Z,4.43
2023-04-01T09:53:22.955Z,4.80
2023-04-01T09:56:08.143Z,4.22
2023-04-01T09:58:43.534Z,5.10
2023-04-01T10:01:19.705Z,4.75
2023-04-01T10:04:04.828Z,3.83
2023-04-01T10:06:34.627Z,6.25
2023-04-01T10:09:07.021Z,4.28
2023-04-01T10:11:39.479Z,4.43
2023-04-01T10:14:29.085Z,5.53
2023-04-01T10:17:07.491Z,6.15
2023-04-01T10:19:36.964Z,4.95
2023-04-01T10:22:12.461Z,5.90
2023-04-01T10:24:57.434Z,5.43
2023-04-01T10:27:42.618Z,5.75
2023-04-01T10:30:24.468Z,5.63
2023-04-01T10:33:16.264Z,4.60
2023-04-01T10:35:42.763Z,6.28
2023-04-01T10:38:15.310Z,6.03
2023-04-01T10:40:56.872Z,4.60
2023-04-01T10:43:23.324Z,5.88
2023-04-01T10:46:08.331Z,4.45
2023-04-01T10:48:40.912Z,4.45
2023-04-01T10:51:26.255Z,4.57
2023-04-01T10:54:22.123Z,4.28
2023-04-01T10:56:55.742Z,3.75
2023-04-01T10:59:28.222Z,5.80
2023-04-01T11:02:11.501Z,4.75
2023-04-01T11:07:08.122Z,5.13
2023-04-01T11:09:53.239Z,4.50
2023-04-01T11:12:19.662Z,4.00
2023-04-01T11:15:04.685Z,4.05
2023-04-01T11:17:37.232Z,4.75
2023-04-01T11:20:29.935Z,4.55
2023-04-01T11:22:59.160Z,3.95
2023-04-01T11:25:28.352Z,3.75
2023-04-01T11:28:08.559Z,3.85
2023-04-01T11:30:56.574Z,3.40
2023-04-01T11:33:29.531Z,4.25
2023-04-01T11:36:11.421Z,3.60
2023-04-01T11:38:41.106Z,4.10
2023-04-01T11:41:16.606Z,4.20
2023-04-01T11:43:52.348Z,3.75
2023-04-01T11:46:22.014Z,5.03
2023-04-01T11:49:06.976Z,4.88
2023-04-01T11:51:33.440Z,4.18
2023-04-01T11:54:18.678Z,4.45
2023-04-01T11:56:51.592Z,4.00
2023-04-01T11:59:20.841Z,3.83
2023-04-01T12:01:55.647Z,4.63
2023-04-01T12:04:34.336Z,3.80
2023-04-01T12:07:18.882Z,3.22
2023-04-01T12:09:50.690Z,4.28
2023-04-01T12:12:35.811Z,4.13
2023-04-01T12:15:05.530Z,3.00
2023-04-01T12:17:37.817Z,4.25
2023-04-01T12:20:10.094Z,4.13
2023-04-01T12:22:39.340Z,4.35
2023-04-01T12:25:08.823Z,4.05
2023-04-01T12:27:41.397Z,4.20
2023-04-01T12:30:10.960Z,4.00
2023-04-01T12:32:43.320Z,4.40
2023-04-01T12:35:21.512Z,4.68
2023-04-01T12:38:06.613Z,3.63
2023-04-01T12:40:51.632Z,4.53
2023-04-01T12:43:27.299Z,4.07
2023-04-01T12:45:53.745Z,3.78
2023-04-01T12:48:23.061Z,3.63
2023-04-01T12:51:08.209Z,4.50
2023-04-01T12:53:53.205Z,4.75
2023-04-01T12:56:29.005Z,4.20
2023-04-01T12:58:58.521Z,4.03
2023-04-01T13:01:43.823Z,4.90
2023-04-01T13:04:13.638Z,4.70
2023-04-01T13:06:52.620Z,5.90
2023-04-01T13:09:29.857Z,4.35
2023-04-01T13:11:56.308Z,4.22
2023-04-01T13:14:31.866Z,4.00
2023-04-01T13:17:17.788Z,4.07
2023-04-01T13:20:19.815Z,4.32
2023-04-01T13:22:52.589Z,3.42
2023-04-01T13:25:29.026Z,4.40
2023-04-01T13:28:05.400Z,5.55
2023-04-01T13:30:36.240Z,4.15
2023-04-01T13:33:21.001Z,4.47
2023-04-01T13:35:53.626Z,4.50
2023-04-01T13:38:38.924Z,3.50
2023-04-01T13:41:34.819Z,4.88
2023-04-01T13:44:07.222Z,3.83
2023-04-01T13:46:33.693Z,4.45
2023-04-01T13:49:03.229Z,5.07
2023-04-01T13:51:38.842Z,4.22
2023-04-01T13:54:27.809Z,3.67
2023-04-01T13:57:13.124Z,4.82
2023-04-01T13:59:39.594Z,4.78
2023-04-01T14:02:21.779Z,7.40
2023-04-01T14:05:00.172Z,4.40
2023-04-01T14:07:38.838Z,4.25
2023-04-01T14:10:05.242Z,3.72
2023-04-01T14:12:37.562Z,4.50
2023-04-01T14:15:03.974Z,4.05
2023-04-01T14:17:30.469Z,5.78
2023-04-01T14:20:04.952Z,4.63
2023-04-01T14:22:39.622Z,3.50
2023-04-01T14:25:24.653Z,4.22
2023-04-01T14:28:06.183Z,4.35
2023-04-01T14:30:44.902Z,4.15
2023-04-01T14:33:37.817Z,4.38
2023-04-01T14:36:14.311Z,5.13
2023-04-01T14:38:48.787Z,5.43
2023-04-01T14:41:15.585Z,5.13
2023-04-01T14:43:53.985Z,4.53
2023-04-01T14:46:39.308Z,3.90
2023-04-01T14:49:15.680Z,4.75
2023-04-01T14:51:42.252Z,4.93
2023-04-01T14:54:11.722Z,4.95
2023-04-01T14:56:38.191Z,4.22
2023-04-01T14:59:23.250Z,5.47
2023-04-01T15:01:52.917Z,4.38
2023-04-01T15:04:34.618Z,5.47
2023-04-01T15:07:19.598Z,4.57
2023-04-01T15:09:46.133Z,5.25
2023-04-01T15:12:22.584Z,5.25
2023-04-01T15:15:04.695Z,3.97
2023-04-01T15:17:46.445Z,4.57
2023-04-01T15:20:31.103Z,5.20
2023-04-01T15:23:08.235Z,4.78
2023-04-01T15:25:37.550Z,5.13
2023-04-01T15:28:19.056Z,4.57
2023-04-01T15:30:45.463Z,4.53
2023-04-01T15:33:18.111Z,5.47
2023-04-01T15:35:53.953Z,5.72
2023-04-01T15:38:20.414Z,3.70
2023-04-01T15:40:46.835Z,5.88
2023-04-01T15:43:13.263Z,6.68
2023-04-01T15:45:58.690Z,6.90
2023-04-01T15:48:46.022Z,6.22
2023-04-01T15:51:35.730Z,7.18
2023-04-01T15:54:17.469Z,7.25
2023-04-01T15:56:44.053Z,6.20
2023-04-01T15:59:33.555Z,5.10
2023-04-01T16:02:01.863Z,5.43
2023-04-01T16:04:28.331Z,5.80
2023-04-01T16:07:30.596Z,5.55
2023-04-01T16:09:56.995Z,6.43
2023-04-01T16:12:24.732Z,5.20
2023-04-01T16:14:57.812Z,5.10
2023-04-01T16:17:43.731Z,7.32
2023-04-01T16:20:10.195Z,6.80
2023-04-01T16:22:41.589Z,7.32
2023-04-01T16:25:30.185Z,6.47
2023-04-01T16:28:02.664Z,8.00
2023-04-01T16:30:39.731Z,9.43
2023-04-01T16:33:21.586Z,7.10
2023-04-01T16:35:54.047Z,6.47
2023-04-01T16:38:20.515Z,6.60
2023-04-01T16:41:08.146Z,8.45
2023-04-01T16:43:40.714Z,9.20
2023-04-01T16:46:13.438Z,6.90
2023-04-01T16:48:58.511Z,9.48
2023-04-01T16:51:25.144Z,7.55
2023-04-01T16:54:03.495Z,8.30
2023-04-01T16:56:37.952Z,7.40
2023-04-01T16:59:07.633Z,7.03
2023-04-01T17:01:52.843Z,7.22
2023-04-01T17:04:24.467Z,8.00
2023-04-01T17:06:54.788Z,8.05
2023-04-01T17:09:26.617Z,8.48
2023-04-01T17:11:53.088Z,6.75
2023-04-01T17:14:19.870Z,9.80
2023-04-01T17:16:55.402Z,8.35
2023-04-01T17:19:26.308Z,6.95
2023-04-01T17:22:02.634Z,5.88
2023-04-01T17:24:44.561Z,6.82
2023-04-01T17:27:20.218Z,7.53
2023-04-01T17:29:52.954Z,5.97
2023-04-01T17:32:28.639Z,6.82
2023-04-01T17:35:02.224Z,6.95
2023-04-01T17:37:58.796Z,6.80
2023-04-01T17:40:53.783Z,7.38
2023-04-01T17:43:39.666Z,6.38
2023-04-01T17:46:26.551Z,5.22
2023-04-01T17:49:16.076Z,5.50
2023-04-01T17:51:57.947Z,7.35
2023-04-01T17:54:37.090Z,5.35
2023-04-01T17:57:24.922Z,5.13
2023-04-01T17:59:57.158Z,5.20
2023-04-01T18:02:23.953Z,5.60
2023-04-01T18:05:09.009Z,7.07
2023-04-01T18:07:55.432Z,6.28
2023-04-01T18:10:42.697Z,5.53
2023-04-01T18:13:27.699Z,5.43
2023-04-01T18:16:14.435Z,6.88
2023-04-01T18:18:46.734Z,6.15
2023-04-01T18:21:22.246Z,5.93
2023-04-01T18:24:02.241Z,5.78
2023-04-01T18:26:32.157Z,6.03
2023-04-01T18:29:13.922Z,5.88
2023-04-01T18:31:45.442Z,6.32
2023-04-01T18:34:31.098Z,6.07
2023-04-01T18:37:01.822Z,5.72
2023-04-01T18:39:48.486Z,5.22
2023-04-01T18:42:24.449Z,5.00
2023-04-01T18:44:57.589Z,5.93
2023-04-01T18:47:27.305Z,5.72
2023-04-01T18:50:02.860Z,5.25
2023-04-01T18:52:35.682Z,5.47
2023-04-01T18:55:02.093Z,6.43
2023-04-01T18:57:39.883Z,6.95
2023-04-01T19:00:16.679Z,6.70
2023-04-01T19:02:51.978Z,4.80
2023-04-01T19:05:20.735Z,14.48
2023-04-01T19:08:12.774Z,29.58
2023-04-01T19:10:47.513Z,10.82
2023-04-01T19:13:20.155Z,9.38
2023-04-01T19:16:10.211Z,22.25
2023-04-01T19:18:57.155Z,9.25
2023-04-01T19:21:44.205Z,6.97
2023-04-01T19:24:10.938Z,6.95
2023-04-01T19:26:55.363Z,13.35
2023-04-01T19:29:31.057Z,10.52
2023-04-01T19:32:03.429Z,8.73
2023-04-01T19:34:44.960Z,14.55
2023-04-01T19:37:11.371Z,10.75
2023-04-01T19:39:49.320Z,11.10
2023-04-01T19:42:25.336Z,10.88
2023-04-01T19:45:10.399Z,10.90
2023-04-01T19:47:43.418Z,8.95
2023-04-01T19:50:09.987Z,8.77
2023-04-01T19:52:41.205Z,9.73
2023-04-01T19:55:16.913Z,9.82
2023-04-01T19:57:55.583Z,7.63
2023-04-01T20:00:34.167Z,7.07
2023-04-01T20:03:01.157Z,7.20
2023-04-01T20:05:27.732Z,12.73
2023-04-01T20:07:57.643Z,17.50
2023-04-01T20:10:33.111Z,25.60
2023-04-01T20:13:22.571Z,31.20
2023-04-01T20:15:58.911Z,24.83
2023-04-01T20:18:49.813Z,18.92
2023-04-01T20:21:16.328Z,17.77
2023-04-01T20:23:46.156Z,13.68
2023-04-01T20:26:14.038Z,12.27
2023-04-01T20:28:45.761Z,9.00
2023-04-01T20:31:31.024Z,11.63
2023-04-01T20:34:16.262Z,9.85
2023-04-01T20:37:01.489Z,9.43
2023-04-01T20:39:35.592Z,8.23
2023-04-01T20:42:37.546Z,7.97
2023-04-01T20:45:17.117Z,6.28
2023-04-01T20:47:48.656Z,8.80
2023-04-01T20:50:26.707Z,6.95
2023-04-01T20:53:06.868Z,7.95
2023-04-01T20:55:51.686Z,7.28
2023-04-01T20:58:37.183Z,7.20
2023-04-01T21:01:06.608Z,7.05
2023-04-01T21:03:48.376Z,6.88
2023-04-01T21:06:27.756Z,6.63
2023-04-01T21:09:07.515Z,6.80
2023-04-01T21:11:37.819Z,6.35
2023-04-01T21:14:13.472Z,7.35
2023-04-01T21:16:53.889Z,7.10
2023-04-01T21:19:41.936Z,7.47
2023-04-01T21:22:17.664Z,24.90
2023-04-01T21:24:56.214Z,44.20
2023-04-01T21:27:40.262Z,55.88
2023-04-01T21:30:06.845Z,60.20
2023-04-01T21:32:39.438Z,45.88
2023-04-01T21:35:08.823Z,26.15
2023-04-01T21:37:58.282Z,29.45
2023-04-01T21:40:41.828Z,23.40
2023-04-01T21:43:14.183Z,19.40
2023-04-01T21:45:50.093Z,15.45
2023-04-01T21:48:35.801Z,11.70
2023-04-01T21:51:19.694Z,10.40
2023-04-01T21:53:55.373Z,9.38
2023-04-01T21:56:28.072Z,8.32
2023-04-01T21:59:13.066Z,8.45
2023-04-01T22:01:58.707Z,10.15
2023-04-01T22:04:43.765Z,9.95
2023-04-01T22:07:18.614Z,7.35
2023-04-01T22:10:04.129Z,9.45
2023-04-01T22:12:39.704Z,8.43
2023-04-01T22:15:06.119Z,7.15
2023-04-01T22:17:41.713Z,7.22
2023-04-01T22:20:11.576Z,10.30
2023-04-01T22:22:58.326Z,16.20
2023-04-01T22:25:30.943Z,14.30
2023-04-01T22:28:04.619Z,10.63
2023-04-01T22:30:34.029Z,12.25
2023-04-01T22:33:08.423Z,9.77
2023-04-01T22:35:55.148Z,7.45
2023-04-01T22:38:35.421Z,7.15
2023-04-01T22:41:21.096Z,7.53
2023-04-01T22:43:48.587Z,7.68
2023-04-01T22:46:50.765Z,5.63
2023-04-01T22:49:25.282Z,6.18
2023-04-01T22:52:27.240Z,6.72
2023-04-01T22:54:55.419Z,5.68
2023-04-01T22:57:21.880Z,5.93
2023-04-01T22:59:56.774Z,8.00
2023-04-01T23:02:26.656Z,6.53
2023-04-01T23:05:13.234Z,6.22
2023-04-01T23:08:01.394Z,7.18
2023-04-01T23:10:32.515Z,6.85
2023-04-01T23:12:59.940Z,6.45
2023-04-01T23:15:27.630Z,7.45
2023-04-01T23:17:59.963Z,6.57
2023-04-01T23:20:54.035Z,5.47
2023-04-01T23:23:24.039Z,6.85
2023-04-01T23:26:09.129Z,5.90
2023-04-01T23:28:44.289Z,5.75
2023-04-01T23:31:27.264Z,6.47
2023-04-01T23:33:57.815Z,4.72
2023-04-01T23:36:24.634Z,6.03
2023-04-01T23:38:51.411Z,5.90
2023-04-01T23:41:21.339Z,7.15
2023-04-01T23:43:51.672Z,7.68
2023-04-01T23:46:18.232Z,5.90
2023-04-01T23:48:45.834Z,6.13
2023-04-01T23:51:19.188Z,6.10
2023-04-01T23:53:47.041Z,5.72
2023-04-01T23:56:14.067Z,5.70
2023-04-01T23:58:53.480Z,6.28
